createdAt,value
2023-02-14T00:01:43.231Z,12.65
2023-02-14T00:04:11.556Z,12.80
2023-02-14T00:06:40.004Z,10.90
2023-02-14T00:09:08.931Z,12.52
2023-02-14T00:11:38.680Z,11.88
2023-02-14T00:14:25.010Z,11.73
2023-02-14T00:16:53.665Z,12.00
2023-02-14T00:19:22.680Z,11.70
2023-02-14T00:21:51.483Z,12.25
2023-02-14T00:24:21.034Z,12.02
2023-02-14T00:26:51.059Z,13.10
2023-02-14T00:29:21.032Z,11.25
2023-02-14T00:31:51.152Z,12.30
2023-02-14T00:34:19.731Z,11.68
2023-02-14T00:36:48.617Z,12.18
2023-02-14T00:39:19.108Z,11.40
2023-02-14T00:41:47.886Z,11.25
2023-02-14T00:44:19.858Z,12.65
2023-02-14T00:46:48.325Z,13.00
2023-02-14T00:49:16.873Z,12.10
2023-02-14T00:51:45.293Z,12.30
2023-02-14T00:54:13.687Z,11.10
2023-02-14T00:56:42.024Z,12.15
2023-02-14T00:59:10.930Z,11.93
2023-02-14T01:01:40.708Z,11.45
2023-02-14T01:04:09.031Z,12.60
2023-02-14T01:06:37.381Z,12.15
2023-02-14T01:09:06.013Z,12.30
2023-02-14T01:11:34.450Z,11.98
2023-02-14T01:14:02.886Z,12.52
2023-02-14T01:16:31.346Z,12.40
2023-02-14T01:19:02.029Z,12.57
2023-02-14T01:21:31.029Z,12.98
2023-02-14T01:24:00.027Z,12.15
2023-02-14T01:26:28.728Z,12.48
2023-02-14T01:28:57.076Z,12.70
2023-02-14T01:31:26.515Z,12.45
2023-02-14T01:33:55.341Z,12.90
2023-02-14T01:36:26.066Z,12.68
2023-02-14T01:38:55.214Z,12.23
2023-02-14T01:41:25.166Z,13.38
2023-02-14T01:43:56.795Z,13.10
2023-02-14T01:46:25.973Z,12.88
2023-02-14T01:48:55.910Z,13.55
2023-02-14T01:51:25.717Z,13.98
2023-02-14T01:53:55.643Z,13.55
2023-02-14T01:56:26.811Z,14.05
2023-02-14T01:58:57.809Z,13.52
2023-02-14T02:01:26.343Z,14.38
2023-02-14T02:03:55.724Z,12.90
2023-02-14T02:06:27.951Z,13.77
2023-02-14T02:09:01.342Z,13.55
2023-02-14T02:11:30.651Z,12.68
2023-02-14T02:13:59.024Z,14.18
2023-02-14T02:16:33.276Z,12.68
2023-02-14T02:19:10.075Z,14.13
2023-02-14T02:21:54.121Z,12.93
2023-02-14T02:24:24.120Z,13.32
2023-02-14T02:27:13.758Z,13.48
2023-02-14T02:29:58.247Z,12.98
2023-02-14T02:32:59.766Z,13.18
2023-02-14T02:35:37.896Z,12.85
2023-02-14T02:38:18.932Z,13.07
2023-02-14T02:40:50.545Z,12.00
2023-02-14T02:43:24.894Z,12.57
2023-02-14T02:46:18.300Z,13.48
2023-02-14T02:48:49.951Z,12.95
2023-02-14T02:51:40.102Z,12.88
2023-02-14T02:54:10.983Z,12.93
2023-02-14T02:56:45.777Z,12.63
2023-02-14T02:59:18.248Z,13.82
2023-02-14T03:01:53.662Z,13.35
2023-02-14T03:04:41.572Z,12.80
2023-02-14T03:07:28.822Z,12.75
2023-02-14T03:09:58.463Z,13.98
2023-02-14T03:12:51.177Z,13.27
2023-02-14T03:15:24.046Z,12.55
2023-02-14T03:18:00.526Z,13.50
2023-02-14T03:20:35.070Z,13.25
2023-02-14T03:23:07.303Z,13.57
2023-02-14T03:25:41.738Z,12.70
2023-02-14T03:28:14.471Z,13.98
2023-02-14T03:30:47.534Z,14.43
2023-02-14T03:33:20.479Z,14.50
2023-02-14T03:35:53.761Z,15.35
2023-02-14T03:38:26.492Z,15.07
2023-02-14T03:40:57.989Z,15.60
2023-02-14T03:43:27.985Z,14.93
2023-02-14T03:45:59.876Z,14.95
2023-02-14T03:48:28.559Z,14.65
2023-02-14T03:50:57.516Z,14.27
2023-02-14T03:53:29.603Z,15.80
2023-02-14T03:56:01.654Z,13.77
2023-02-14T03:58:32.532Z,13.63
2023-02-14T04:01:02.440Z,14.65
2023-02-14T04:03:32.226Z,14.07
2023-02-14T04:06:00.681Z,14.50
2023-02-14T04:08:31.029Z,15.20
2023-02-14T04:11:00.964Z,12.88
2023-02-14T04:13:29.695Z,13.73
2023-02-14T04:15:58.129Z,14.48
2023-02-14T04:18:44.055Z,14.20
2023-02-14T04:21:12.319Z,14.45
2023-02-14T04:23:42.071Z,13.27
2023-02-14T04:26:10.379Z,13.18
2023-02-14T04:28:39.764Z,13.82
2023-02-14T04:31:10.330Z,13.25
2023-02-14T04:33:39.905Z,14.10
2023-02-14T04:36:08.471Z,13.38
2023-02-14T04:38:37.095Z,14.38
2023-02-14T04:41:06.768Z,13.45
2023-02-14T04:43:35.059Z,11.52
2023-02-14T04:46:03.345Z,13.52
2023-02-14T04:48:31.665Z,12.68
2023-02-14T04:51:00.313Z,13.40
2023-02-14T04:53:28.762Z,12.93
2023-02-14T04:55:57.286Z,13.15
2023-02-14T04:58:26.934Z,12.25
2023-02-14T05:00:55.230Z,12.48
2023-02-14T05:03:23.516Z,12.50
2023-02-14T05:05:51.780Z,12.38
2023-02-14T05:08:20.052Z,13.10
2023-02-14T05:10:48.488Z,11.45
2023-02-14T05:13:17.558Z,11.55
2023-02-14T05:15:47.771Z,12.27
2023-02-14T05:18:16.114Z,11.23
2023-02-14T05:24:38.277Z,10.60
2023-02-14T05:27:07.441Z,11.77
2023-02-14T05:29:35.659Z,11.25
2023-02-14T05:32:05.469Z,12.32
2023-02-14T05:34:33.802Z,11.90
2023-02-14T05:37:03.007Z,12.32
2023-02-14T05:39:31.369Z,12.25
2023-02-14T05:41:59.686Z,11.70
2023-02-14T05:44:27.961Z,11.98
2023-02-14T05:46:56.616Z,11.40
2023-02-14T05:49:26.203Z,12.18
2023-02-14T05:51:54.610Z,12.20
2023-02-14T05:54:22.909Z,11.48
2023-02-14T05:56:51.245Z,11.07
2023-02-14T05:59:19.499Z,12.02
2023-02-14T06:01:47.824Z,12.23
2023-02-14T06:04:16.145Z,10.93
2023-02-14T06:06:45.898Z,12.32
2023-02-14T06:09:14.275Z,11.23
2023-02-14T06:11:42.533Z,11.88
2023-02-14T06:14:10.854Z,12.43
2023-02-14T06:16:39.110Z,10.70
2023-02-14T06:19:07.507Z,12.57
2023-02-14T06:21:35.755Z,11.95
2023-02-14T06:24:05.489Z,12.05
2023-02-14T06:26:35.925Z,12.13
2023-02-14T06:33:11.487Z,11.23
2023-02-14T06:35:39.755Z,13.07
2023-02-14T06:38:08.049Z,11.88
2023-02-14T06:40:37.717Z,10.95
2023-02-14T06:43:06.065Z,11.07
2023-02-14T06:45:34.327Z,11.20
2023-02-14T06:48:03.667Z,10.23
2023-02-14T06:50:32.026Z,10.43
2023-02-14T06:53:00.685Z,10.93
2023-02-14T06:55:29.005Z,9.48
2023-02-14T06:57:58.648Z,9.95
2023-02-14T07:00:27.094Z,10.30
2023-02-14T07:02:55.409Z,10.48
2023-02-14T07:05:23.812Z,10.20
2023-02-14T07:07:52.146Z,10.35
2023-02-14T07:10:20.666Z,10.15
2023-02-14T07:12:48.984Z,10.25
2023-02-14T07:15:18.750Z,9.50
2023-02-14T07:17:47.071Z,10.18
2023-02-14T07:20:15.561Z,9.38
2023-02-14T07:22:43.908Z,9.20
2023-02-14T07:25:12.521Z,9.65
2023-02-14T07:27:41.295Z,10.60
2023-02-14T07:30:10.831Z,9.65
2023-02-14T07:32:40.993Z,9.05
2023-02-14T07:35:09.680Z,9.05
2023-02-14T07:37:37.977Z,8.93
2023-02-14T07:40:14.018Z,8.02
2023-02-14T07:42:42.880Z,9.15
2023-02-14T07:45:21.263Z,8.82
2023-02-14T07:47:52.721Z,9.07
2023-02-14T07:50:21.423Z,8.45
2023-02-14T07:52:50.883Z,8.80
2023-02-14T07:55:20.119Z,8.93
2023-02-14T07:57:49.054Z,8.93
2023-02-14T08:00:17.686Z,9.82
2023-02-14T08:02:46.405Z,8.13
2023-02-14T08:05:16.450Z,9.32
2023-02-14T08:07:45.104Z,8.85
2023-02-14T08:10:13.471Z,8.55
2023-02-14T08:13:00.483Z,9.15
2023-02-14T08:15:47.260Z,10.05
2023-02-14T08:18:15.731Z,10.68
2023-02-14T08:20:45.994Z,9.32
2023-02-14T08:23:14.398Z,9.25
2023-02-14T08:25:42.812Z,9.73
2023-02-14T08:28:11.192Z,9.50
2023-02-14T08:30:39.755Z,10.57
2023-02-14T08:33:08.245Z,9.00
2023-02-14T08:35:36.995Z,9.77
2023-02-14T08:38:06.668Z,9.73
2023-02-14T08:40:34.993Z,9.73
2023-02-14T08:43:03.360Z,9.35
2023-02-14T08:45:32.029Z,8.48
2023-02-14T08:48:03.993Z,9.10
2023-02-14T08:50:32.258Z,9.75
2023-02-14T08:53:01.028Z,9.70
2023-02-14T08:55:30.904Z,9.77
2023-02-14T08:58:00.483Z,8.95
2023-02-14T09:00:28.919Z,11.18
2023-02-14T09:02:57.231Z,11.88
2023-02-14T09:05:25.867Z,12.75
2023-02-14T09:07:55.894Z,12.00
2023-02-14T09:10:24.662Z,12.93
2023-02-14T09:12:54.304Z,11.65
2023-02-14T09:15:25.801Z,11.75
2023-02-14T09:17:55.043Z,11.02
2023-02-14T09:20:23.422Z,10.77
2023-02-14T09:22:51.863Z,11.13
2023-02-14T09:25:20.168Z,8.45
2023-02-14T09:27:48.526Z,9.65
2023-02-14T09:30:19.038Z,9.55
2023-02-14T09:32:47.323Z,10.32
2023-02-14T09:35:33.262Z,8.82
2023-02-14T09:38:19.698Z,9.95
2023-02-14T09:40:48.253Z,8.80
2023-02-14T09:43:20.342Z,9.45
2023-02-14T09:45:53.632Z,10.07
2023-02-14T09:48:27.942Z,8.95
2023-02-14T09:50:58.278Z,9.43
2023-02-14T09:53:28.813Z,9.70
2023-02-14T09:56:01.779Z,9.52
2023-02-14T09:58:32.429Z,9.13
2023-02-14T10:01:05.327Z,9.07
2023-02-14T10:03:44.574Z,10.13
2023-02-14T10:06:20.974Z,9.15
2023-02-14T10:08:57.397Z,10.05
2023-02-14T10:11:26.003Z,10.80
2023-02-14T10:13:56.889Z,11.65
2023-02-14T10:16:27.887Z,11.77
2023-02-14T10:18:59.390Z,10.95
2023-02-14T10:21:30.968Z,10.90
2023-02-14T10:24:01.926Z,9.25
2023-02-14T10:26:34.980Z,10.27
2023-02-14T10:29:04.569Z,9.85
2023-02-14T10:31:39.453Z,9.68
2023-02-14T10:34:14.139Z,9.73
2023-02-14T10:36:46.136Z,9.52
2023-02-14T10:39:25.116Z,8.95
2023-02-14T10:41:54.720Z,9.65
2023-02-14T10:44:32.491Z,8.98
2023-02-14T10:47:06.178Z,10.25
2023-02-14T10:49:40.198Z,10.23
2023-02-14T10:52:13.407Z,10.60
2023-02-14T10:58:08.837Z,10.07
2023-02-14T11:00:41.541Z,9.80
2023-02-14T11:03:15.300Z,10.32
2023-02-14T11:05:46.744Z,10.25
2023-02-14T11:08:16.151Z,9.77
2023-02-14T11:10:44.632Z,11.18
2023-02-14T11:13:27.850Z,10.30
2023-02-14T11:16:00.378Z,9.77
2023-02-14T11:18:33.017Z,9.75
2023-02-14T11:21:02.968Z,10.25
2023-02-14T11:23:35.105Z,11.00
2023-02-14T11:26:04.486Z,11.13
2023-02-14T11:28:32.871Z,10.63
2023-02-14T11:31:01.822Z,10.95
2023-02-14T11:33:40.188Z,11.77
2023-02-14T11:36:12.605Z,11.82
2023-02-14T11:38:41.647Z,11.80
2023-02-14T11:41:11.885Z,10.65
2023-02-14T11:43:40.783Z,11.52
2023-02-14T11:46:14.524Z,11.15
2023-02-14T11:48:57.569Z,11.32
2023-02-14T11:51:33.484Z,10.57
2023-02-14T11:54:04.862Z,10.27
2023-02-14T11:56:50.669Z,10.32
2023-02-14T11:59:26.944Z,10.52
2023-02-14T12:01:55.660Z,11.07
2023-02-14T12:04:45.692Z,10.45
2023-02-14T12:07:16.356Z,10.88
2023-02-14T12:09:44.714Z,10.18
2023-02-14T12:12:24.182Z,11.13
2023-02-14T12:14:52.536Z,11.32
2023-02-14T12:17:27.197Z,10.55
2023-02-14T12:20:00.592Z,11.30
2023-02-14T12:22:32.444Z,9.68
2023-02-14T12:25:04.297Z,10.40
2023-02-14T12:27:35.626Z,10.27
2023-02-14T12:30:07.560Z,9.90
2023-02-14T12:32:36.062Z,10.60
2023-02-14T12:35:14.821Z,9.85
2023-02-14T12:37:50.815Z,10.25
2023-02-14T12:40:27.020Z,12.95
2023-02-14T12:43:02.636Z,10.32
2023-02-14T12:45:48.907Z,9.32
2023-02-14T12:48:25.209Z,10.40
2023-02-14T12:51:00.251Z,12.88
2023-02-14T12:53:43.739Z,12.85
2023-02-14T12:56:13.719Z,10.57
2023-02-14T12:58:48.204Z,9.82
2023-02-14T13:01:39.434Z,10.77
2023-02-14T13:04:33.607Z,10.25
2023-02-14T13:07:17.965Z,14.73
2023-02-14T13:09:53.689Z,10.07
2023-02-14T13:12:35.080Z,11.90
2023-02-14T13:15:14.427Z,10.65
2023-02-14T13:17:46.059Z,11.13
2023-02-14T13:20:35.327Z,10.25
2023-02-14T13:23:06.940Z,10.40
2023-02-14T13:25:39.132Z,10.18
2023-02-14T13:28:09.155Z,11.07
2023-02-14T13:30:38.572Z,10.65
2023-02-14T13:33:09.714Z,10.38
2023-02-14T13:35:39.004Z,10.60
2023-02-14T13:38:13.732Z,10.65
2023-02-14T13:40:42.939Z,10.60
2023-02-14T13:43:11.343Z,11.48
2023-02-14T13:46:00.993Z,10.40
2023-02-14T13:48:30.742Z,11.65
2023-02-14T13:51:00.942Z,11.32
2023-02-14T13:53:35.822Z,11.60
2023-02-14T13:56:05.687Z,12.05
2023-02-14T13:58:34.834Z,11.02
2023-02-14T14:01:23.713Z,11.35
2023-02-14T14:03:57.086Z,10.90
2023-02-14T14:06:25.754Z,11.85
2023-02-14T14:08:57.188Z,12.75
2023-02-14T14:12:02.129Z,11.95
2023-02-14T14:14:36.363Z,11.40
2023-02-14T14:17:19.319Z,12.13
2023-02-14T14:19:48.702Z,12.23
2023-02-14T14:22:17.747Z,11.65
2023-02-14T14:25:01.451Z,12.82
2023-02-14T14:27:34.115Z,11.63
2023-02-14T14:30:03.637Z,11.77
2023-02-14T14:32:33.752Z,14.07
2023-02-14T14:35:03.823Z,12.90
2023-02-14T14:37:33.563Z,13.13
2023-02-14T14:40:04.565Z,12.63
2023-02-14T14:45:48.103Z,11.82
2023-02-14T14:48:20.408Z,12.60
2023-02-14T14:50:50.802Z,12.70
2023-02-14T14:53:23.009Z,11.95
2023-02-14T14:55:54.757Z,13.27
2023-02-14T14:58:37.851Z,12.23
2023-02-14T15:01:08.452Z,11.65
2023-02-14T15:03:41.374Z,13.63
2023-02-14T15:06:17.692Z,12.88
2023-02-14T15:08:48.489Z,12.95
2023-02-14T15:11:34.443Z,13.23
2023-02-14T15:14:05.595Z,12.43
2023-02-14T15:16:36.783Z,13.48
2023-02-14T15:19:09.021Z,12.93
2023-02-14T15:21:37.681Z,13.00
2023-02-14T15:24:06.206Z,13.05
2023-02-14T15:26:37.443Z,14.32
2023-02-14T15:29:06.674Z,13.07
2023-02-14T15:31:37.353Z,13.23
2023-02-14T15:34:06.657Z,13.60
2023-02-14T15:36:36.111Z,13.20
2023-02-14T15:39:06.184Z,11.52
2023-02-14T15:41:35.970Z,13.60
2023-02-14T15:44:04.932Z,12.60
2023-02-14T15:46:35.995Z,13.20
2023-02-14T15:49:09.726Z,13.88
2023-02-14T15:51:38.454Z,13.95
2023-02-14T15:54:08.087Z,13.95
2023-02-14T15:56:38.881Z,13.73
2023-02-14T15:59:08.443Z,13.25
2023-02-14T16:01:42.981Z,14.20
2023-02-14T16:04:13.129Z,12.65
2023-02-14T16:06:44.426Z,13.50
2023-02-14T16:09:25.043Z,12.55
2023-02-14T16:11:56.738Z,14.00
2023-02-14T16:14:31.065Z,13.20
2023-02-14T16:17:03.652Z,13.90
2023-02-14T16:19:36.531Z,14.13
2023-02-14T16:22:05.279Z,13.55
2023-02-14T16:24:33.718Z,14.10
2023-02-14T16:27:06.834Z,13.23
2023-02-14T16:29:36.257Z,12.93
2023-02-14T16:32:16.632Z,12.27
2023-02-14T16:34:47.096Z,14.02
2023-02-14T16:37:20.717Z,13.63
2023-02-14T16:39:49.810Z,15.15
2023-02-14T16:42:20.037Z,15.57
2023-02-14T16:44:50.194Z,17.23
2023-02-14T16:47:20.603Z,15.32
2023-02-14T16:49:50.514Z,15.30
2023-02-14T16:52:23.407Z,16.65
2023-02-14T16:54:52.087Z,15.77
2023-02-14T16:57:22.903Z,17.58
2023-02-14T16:59:51.655Z,17.50
2023-02-14T17:02:20.568Z,18.50
2023-02-14T17:04:51.709Z,20.33
2023-02-14T17:07:20.568Z,19.65
2023-02-14T17:09:54.035Z,20.35
2023-02-14T17:12:27.549Z,23.30
2023-02-14T17:14:58.665Z,19.48
2023-02-14T17:17:31.458Z,24.63
2023-02-14T17:20:12.913Z,14.18
2023-02-14T17:22:46.266Z,15.32
2023-02-14T17:25:16.191Z,13.73
2023-02-14T17:27:46.326Z,13.13
2023-02-14T17:30:17.694Z,11.45
2023-02-14T17:32:47.192Z,13.10
2023-02-14T17:35:16.068Z,11.80
2023-02-14T17:37:45.688Z,11.20
2023-02-14T17:40:16.556Z,13.27
2023-02-14T17:42:56.400Z,13.38
2023-02-14T17:45:34.158Z,11.75
2023-02-14T17:48:07.489Z,10.65
2023-02-14T17:50:39.188Z,12.35
2023-02-14T17:53:07.659Z,12.25
2023-02-14T17:55:38.247Z,11.57
2023-02-14T18:02:37.890Z,11.10
2023-02-14T18:05:20.038Z,12.40
2023-02-14T22:50:20.326Z,13.23
2023-02-14T22:52:48.849Z,15.02
2023-02-14T22:55:17.221Z,14.98
2023-02-14T22:57:45.541Z,14.82
2023-02-14T23:00:14.556Z,13.77
2023-02-14T23:02:43.110Z,14.35
2023-02-14T23:05:14.139Z,14.70
2023-02-14T23:07:44.118Z,14.00
2023-02-14T23:10:12.520Z,14.63
2023-02-14T23:13:09.968Z,15.43
2023-02-14T23:15:55.887Z,15.50
2023-02-14T23:18:42.003Z,13.85
2023-02-14T23:21:31.380Z,14.13
2023-02-14T23:24:01.060Z,14.90
2023-02-14T23:26:29.332Z,13.05
2023-02-14T23:28:57.682Z,15.02
2023-02-14T23:31:26.147Z,14.75
2023-02-14T23:33:54.458Z,14.35
2023-02-14T23:36:22.745Z,13.77
2023-02-14T23:38:51.011Z,15.27
2023-02-14T23:41:38.531Z,14.60
2023-02-14T23:44:06.861Z,14.18
2023-02-14T23:46:35.119Z,14.38
2023-02-14T23:49:03.423Z,13.90
2023-02-14T23:51:31.696Z,14.15
2023-02-14T23:54:00.198Z,13.25
2023-02-14T23:56:29.942Z,14.50
2023-02-14T23:58:58.318Z,14.07
